createdAt,value
2018-04-09T00:00:55.840Z,91.80
2018-04-09T00:02:58.433Z,92.00
2018-04-09T00:05:01.811Z,91.80
2018-04-09T00:07:04.398Z,91.80
2018-04-09T00:09:07.773Z,92.20
2018-04-09T00:11:10.362Z,92.10
2018-04-09T00:13:13.722Z,92.00
2018-04-09T00:15:16.347Z,92.00
2018-04-09T00:17:18.941Z,92.00
2018-04-09T00:19:21.562Z,91.90
2018-04-09T00:21:24.146Z,91.80
2018-04-09T00:23:26.740Z,91.90
2018-04-09T00:25:29.443Z,92.00
2018-04-09T00:27:32.039Z,91.80
2018-04-09T00:29:34.669Z,91.90
2018-04-09T00:31:37.253Z,92.40
2018-04-09T00:33:39.845Z,92.50
2018-04-09T00:35:42.581Z,92.30
2018-04-09T00:37:45.935Z,92.20
2018-04-09T00:39:48.581Z,92.10
2018-04-09T00:41:51.169Z,92.20
2018-04-09T00:43:53.765Z,91.90
2018-04-09T00:45:56.385Z,92.10
2018-04-09T00:47:59.071Z,92.40
2018-04-09T00:50:01.703Z,92.50
2018-04-09T00:52:04.325Z,92.30
2018-04-09T00:54:06.923Z,92.10
2018-04-09T00:56:09.606Z,92.10
2018-04-09T00:58:12.192Z,92.40
2018-04-09T01:00:14.793Z,92.30
2018-04-09T01:02:18.169Z,92.20
2018-04-09T01:04:20.764Z,92.20
2018-04-09T01:06:23.383Z,92.10
2018-04-09T01:08:26.052Z,92.00
2018-04-09T01:10:28.657Z,92.30
2018-04-09T01:12:31.346Z,92.50
2018-04-09T01:14:34.794Z,92.40
2018-04-09T01:16:37.427Z,92.40
2018-04-09T01:18:40.801Z,92.40
2018-04-09T01:20:43.520Z,92.40
2018-04-09T01:22:46.230Z,92.30
2018-04-09T01:24:48.835Z,92.20
2018-04-09T01:26:51.438Z,92.10
2018-04-09T01:28:54.029Z,92.10
2018-04-09T01:30:56.641Z,92.00
2018-04-09T01:32:59.248Z,91.90
2018-04-09T01:35:01.830Z,92.10
2018-04-09T01:37:05.217Z,92.30
2018-04-09T01:39:08.561Z,92.30
2018-04-09T01:41:11.233Z,92.30
2018-04-09T01:43:13.832Z,92.10
2018-04-09T01:45:16.423Z,92.40
2018-04-09T01:47:19.798Z,93.10
2018-04-09T01:49:22.401Z,93.10
2018-04-09T01:51:25.789Z,93.60
2018-04-09T01:53:29.143Z,93.90
2018-04-09T01:55:31.934Z,93.90
2018-04-09T01:57:34.543Z,94.10
2018-04-09T01:59:37.894Z,93.60
2018-04-09T02:01:40.503Z,93.60
2018-04-09T02:03:43.861Z,93.20
2018-04-09T02:05:46.454Z,93.10
2018-04-09T02:07:49.845Z,92.90
2018-04-09T02:09:53.209Z,93.10
2018-04-09T02:11:55.819Z,93.10
2018-04-09T02:13:59.190Z,93.50
2018-04-09T02:16:01.787Z,93.50
2018-04-09T02:18:05.221Z,94.00
2018-04-09T02:20:07.826Z,94.00
2018-04-09T02:22:10.429Z,93.80
2018-04-09T02:24:13.816Z,93.80
2018-04-09T02:26:17.226Z,94.00
2018-04-09T02:28:20.605Z,93.80
2018-04-09T02:30:23.987Z,93.60
2018-04-09T02:32:26.617Z,93.60
2018-04-09T02:34:29.256Z,93.40
2018-04-09T02:36:32.647Z,93.10
2018-04-09T02:38:36.074Z,93.40
2018-04-09T02:40:38.701Z,93.60
2018-04-09T02:42:41.314Z,93.40
2018-04-09T02:44:43.900Z,93.50
2018-04-09T02:46:46.474Z,93.50
2018-04-09T02:48:49.097Z,93.40
2018-04-09T02:50:51.682Z,93.20
2018-04-09T02:52:55.074Z,92.90
2018-04-09T02:54:58.429Z,92.90
2018-04-09T02:57:01.066Z,92.90
2018-04-09T02:59:03.726Z,92.90
2018-04-09T03:01:07.178Z,93.00
2018-04-09T03:03:09.907Z,93.00
2018-04-09T03:05:12.521Z,93.00
2018-04-09T03:07:15.118Z,93.20
2018-04-09T03:09:17.752Z,93.10
2018-04-09T03:11:20.328Z,93.20
2018-04-09T03:13:22.950Z,93.10
2018-04-09T03:15:25.552Z,93.20
2018-04-09T03:17:28.150Z,92.90
2018-04-09T03:19:30.812Z,92.80
2018-04-09T03:21:33.447Z,92.90
2018-04-09T03:23:36.044Z,92.70
2018-04-09T03:25:39.420Z,93.00
2018-04-09T03:27:42.008Z,93.30
2018-04-09T03:29:45.373Z,93.10
2018-04-09T03:31:47.971Z,93.10
2018-04-09T03:33:51.397Z,93.10
2018-04-09T03:35:54.707Z,93.30
2018-04-09T03:37:57.303Z,93.20
2018-04-09T03:39:59.949Z,93.00
2018-04-09T03:42:02.557Z,93.20
2018-04-09T03:44:05.161Z,93.20
2018-04-09T03:46:08.521Z,93.10
2018-04-09T03:48:11.116Z,93.10
2018-04-09T03:50:14.507Z,93.40
2018-04-09T03:52:17.888Z,93.70
2018-04-09T03:54:20.507Z,93.70
2018-04-09T03:56:23.090Z,93.70
2018-04-09T03:58:25.699Z,93.60
2018-04-09T04:00:28.375Z,93.60
2018-04-09T04:02:30.963Z,93.60
2018-04-09T04:04:33.572Z,93.90
2018-04-09T04:06:36.326Z,93.90
2018-04-09T04:08:39.698Z,93.60
2018-04-09T04:10:42.314Z,93.60
2018-04-09T04:12:44.993Z,93.60
2018-04-09T04:14:47.600Z,93.60
2018-04-09T04:17:02.091Z,93.40
2018-04-09T04:19:16.384Z,93.20
2018-04-09T04:21:30.682Z,93.10
2018-04-09T04:23:33.292Z,92.90
2018-04-09T04:25:35.893Z,93.50
2018-04-09T04:27:38.476Z,93.20
2018-04-09T04:29:41.199Z,93.10
2018-04-09T04:31:44.553Z,93.20
2018-04-09T04:33:47.151Z,93.20
2018-04-09T04:35:49.768Z,93.20
2018-04-09T04:37:52.437Z,93.10
2018-04-09T04:39:55.038Z,93.30
2018-04-09T04:41:57.705Z,93.50
2018-04-09T04:44:00.300Z,93.50
2018-04-09T04:46:02.913Z,93.50
2018-04-09T04:48:06.347Z,93.40
2018-04-09T04:50:08.969Z,93.30
2018-04-09T04:52:11.551Z,93.30
2018-04-09T04:54:14.947Z,93.60
2018-04-09T04:56:18.346Z,93.60
2018-04-09T04:58:21.715Z,93.70
2018-04-09T05:00:24.338Z,93.70
2018-04-09T05:02:27.702Z,94.10
2018-04-09T05:04:31.066Z,93.90
2018-04-09T05:06:33.689Z,93.80
2018-04-09T05:08:36.613Z,93.80
2018-04-09T05:10:39.217Z,93.60
2018-04-09T05:12:42.566Z,93.50
2018-04-09T05:14:45.153Z,93.50
2018-04-09T05:16:47.753Z,93.50
2018-04-09T05:18:51.129Z,93.80
2018-04-09T05:20:53.869Z,93.60
2018-04-09T05:22:56.453Z,93.60
2018-04-09T05:24:59.054Z,93.50
2018-04-09T05:27:01.653Z,93.80
2018-04-09T05:29:05.009Z,93.50
2018-04-09T05:31:07.622Z,93.50
2018-04-09T05:33:10.982Z,93.70
2018-04-09T05:35:13.558Z,93.70
2018-04-09T05:37:16.570Z,93.80
2018-04-09T05:39:19.185Z,93.70
2018-04-09T05:41:21.815Z,93.80
2018-04-09T05:43:25.175Z,93.70
2018-04-09T05:45:27.753Z,93.70
2018-04-09T05:47:30.353Z,93.80
2018-04-09T05:49:33.730Z,94.00
2018-04-09T05:51:36.344Z,93.90
2018-04-09T05:53:38.932Z,93.90
2018-04-09T05:55:41.551Z,93.70
2018-04-09T05:57:44.238Z,93.80
2018-04-09T05:59:46.823Z,93.80
2018-04-09T06:01:50.413Z,93.70
2018-04-09T06:03:53.813Z,93.70
2018-04-09T06:05:57.209Z,93.80
2018-04-09T06:08:00.601Z,93.70
2018-04-09T06:10:03.970Z,93.80
2018-04-09T06:12:08.090Z,93.80
2018-04-09T06:14:11.459Z,93.80
2018-04-09T06:16:14.126Z,93.80
2018-04-09T06:18:16.675Z,93.70
2018-04-09T06:20:19.273Z,93.70
2018-04-09T06:22:21.953Z,93.70
2018-04-09T06:24:24.545Z,94.00
2018-04-09T06:26:27.164Z,93.50
2018-04-09T06:28:29.745Z,93.60
2018-04-09T06:30:32.330Z,93.60
2018-04-09T06:32:34.948Z,93.70
2018-04-09T06:34:37.533Z,93.30
2018-04-09T06:36:40.910Z,93.00
2018-04-09T06:38:44.469Z,93.00
2018-04-09T06:40:47.136Z,92.60
2018-04-09T06:42:49.814Z,92.50
2018-04-09T06:44:52.384Z,92.80
2018-04-09T06:46:54.987Z,92.80
2018-04-09T06:48:57.592Z,92.40
2018-04-09T06:51:00.941Z,92.10
2018-04-09T06:53:03.542Z,92.30
2018-04-09T06:55:06.161Z,92.60
2018-04-09T06:57:08.774Z,92.70
2018-04-09T06:59:11.345Z,92.60
2018-04-09T07:01:14.714Z,91.90
2018-04-09T07:03:17.339Z,91.80
2018-04-09T07:05:19.922Z,92.00
2018-04-09T07:07:23.486Z,91.10
2018-04-09T07:09:26.086Z,91.00
2018-04-09T07:11:28.688Z,90.70
2018-04-09T07:13:31.305Z,90.70
2018-04-09T07:15:33.901Z,90.60
2018-04-09T07:17:36.525Z,90.80
2018-04-09T07:19:39.122Z,91.10
2018-04-09T07:21:41.725Z,90.80
2018-04-09T07:23:44.333Z,91.00
2018-04-09T07:25:46.925Z,90.90
2018-04-09T07:27:50.345Z,91.10
2018-04-09T07:29:52.941Z,91.10
2018-04-09T07:31:55.545Z,90.90
2018-04-09T07:33:58.949Z,91.20
2018-04-09T07:36:01.547Z,91.20
2018-04-09T07:38:04.958Z,90.60
2018-04-09T07:40:07.556Z,90.60
2018-04-09T07:42:10.141Z,90.20
2018-04-09T07:44:13.523Z,89.80
2018-04-09T07:46:16.126Z,89.70
2018-04-09T07:48:18.746Z,89.70
2018-04-09T07:50:21.425Z,89.00
2018-04-09T07:52:24.038Z,89.30
2018-04-09T07:54:27.415Z,89.50
2018-04-09T07:56:30.030Z,89.40
2018-04-09T07:58:33.410Z,89.10
2018-04-09T08:00:36.001Z,89.10
2018-04-09T08:02:38.604Z,88.80
2018-04-09T08:04:41.365Z,89.00
2018-04-09T08:06:44.003Z,87.40
2018-04-09T08:08:47.447Z,86.80
2018-04-09T08:10:50.068Z,86.80
2018-04-09T08:12:53.441Z,87.30
2018-04-09T08:14:56.102Z,87.20
2018-04-09T08:16:58.979Z,86.70
2018-04-09T08:19:01.628Z,86.90
2018-04-09T08:21:04.217Z,86.60
2018-04-09T08:23:06.818Z,86.90
2018-04-09T08:25:09.499Z,87.30
2018-04-09T08:27:12.086Z,86.20
2018-04-09T08:29:15.452Z,87.30
2018-04-09T08:31:18.074Z,87.30
2018-04-09T08:33:20.762Z,86.70
2018-04-09T08:35:23.371Z,87.30
2018-04-09T08:37:25.971Z,86.90
2018-04-09T08:39:28.600Z,85.90
2018-04-09T08:41:31.218Z,84.90
2018-04-09T08:43:34.654Z,84.60
2018-04-09T08:45:37.385Z,84.40
2018-04-09T08:47:39.968Z,83.60
2018-04-09T08:49:43.346Z,85.00
2018-04-09T08:51:45.930Z,84.40
2018-04-09T08:53:48.642Z,83.50
2018-04-09T08:55:51.285Z,82.80
2018-04-09T08:57:53.875Z,83.10
2018-04-09T08:59:56.489Z,84.10
2018-04-09T09:01:59.078Z,84.10
2018-04-09T09:04:01.679Z,84.30
2018-04-09T09:06:04.295Z,83.10
2018-04-09T09:08:06.894Z,83.70
2018-04-09T09:10:09.511Z,83.50
2018-04-09T09:12:12.924Z,83.80
2018-04-09T09:14:15.509Z,83.80
2018-04-09T09:16:18.117Z,82.90
2018-04-09T09:18:20.735Z,83.10
2018-04-09T09:20:24.113Z,82.10
2018-04-09T09:22:27.479Z,82.30
2018-04-09T09:24:31.715Z,81.40
2018-04-09T09:26:34.321Z,81.30
2018-04-09T09:28:36.973Z,81.70
2018-04-09T09:30:40.351Z,81.90
2018-04-09T09:32:42.946Z,81.80
2018-04-09T09:34:46.313Z,80.20
2018-04-09T09:36:48.926Z,80.10
2018-04-09T09:38:51.565Z,80.40
2018-04-09T09:40:54.137Z,81.00
2018-04-09T09:42:56.769Z,81.20
2018-04-09T09:44:59.366Z,81.80
2018-04-09T09:47:02.078Z,83.10
2018-04-09T09:49:05.439Z,82.40
2018-04-09T09:51:08.041Z,82.30
2018-04-09T09:53:10.777Z,81.30
2018-04-09T09:55:13.380Z,80.90
2018-04-09T09:57:15.978Z,79.50
2018-04-09T09:59:19.357Z,79.20
2018-04-09T10:01:26.922Z,79.20
2018-04-09T10:03:29.517Z,80.30
2018-04-09T10:05:32.138Z,79.20
2018-04-09T10:07:34.792Z,79.40
2018-04-09T10:09:37.353Z,80.10
2018-04-09T10:11:40.745Z,79.10
2018-04-09T10:13:44.104Z,78.10
2018-04-09T10:15:46.709Z,78.10
2018-04-09T10:17:50.251Z,77.50
2018-04-09T10:19:52.850Z,77.40
2018-04-09T10:21:56.232Z,77.50
2018-04-09T10:23:58.832Z,77.20
2018-04-09T10:26:01.418Z,77.90
2018-04-09T10:28:04.801Z,78.40
2018-04-09T10:30:07.405Z,77.80
2018-04-09T10:32:10.778Z,76.10
2018-04-09T10:34:14.147Z,73.00
2018-04-09T10:36:16.755Z,73.00
2018-04-09T10:38:20.153Z,73.50
2018-04-09T10:40:23.523Z,73.50
2018-04-09T10:42:26.143Z,73.50
2018-04-09T10:44:29.539Z,74.90
2018-04-09T10:46:32.141Z,74.30
2018-04-09T10:48:34.775Z,74.60
2018-04-09T10:50:37.447Z,74.00
2018-04-09T10:52:40.071Z,73.00
2018-04-09T10:54:42.661Z,72.30
2018-04-09T10:56:45.273Z,70.50
2018-04-09T10:58:47.906Z,68.80
2018-04-09T11:00:50.499Z,68.20
2018-04-09T11:02:53.893Z,68.60
2018-04-09T11:04:57.262Z,70.40
2018-04-09T11:06:59.845Z,70.40
2018-04-09T11:09:02.470Z,69.70
2018-04-09T11:11:05.071Z,69.30
2018-04-09T11:13:07.681Z,69.40
2018-04-09T11:15:11.035Z,67.70
2018-04-09T11:17:13.706Z,67.60
2018-04-09T11:19:16.324Z,64.70
2018-04-09T11:21:19.731Z,65.30
2018-04-09T11:23:22.341Z,65.30
2018-04-09T11:25:24.977Z,64.00
2018-04-09T11:27:28.331Z,67.00
2018-04-09T11:29:30.945Z,67.00
2018-04-09T11:31:34.289Z,68.70
2018-04-09T11:33:37.675Z,67.70
2018-04-09T11:35:40.263Z,67.60
2018-04-09T11:37:42.981Z,68.30
2018-04-09T11:39:46.371Z,67.60
2018-04-09T11:41:49.734Z,69.50
2018-04-09T11:43:52.352Z,69.60
2018-04-09T11:45:54.947Z,69.20
2018-04-09T11:47:57.536Z,69.10
2018-04-09T11:50:00.163Z,67.70
2018-04-09T11:52:02.914Z,68.30
2018-04-09T11:54:05.559Z,68.10
2018-04-09T11:56:08.190Z,67.90
2018-04-09T11:58:10.768Z,68.30
2018-04-09T12:00:14.141Z,65.30
2018-04-09T12:02:16.792Z,65.20
2018-04-09T12:04:19.375Z,63.50
2018-04-09T12:06:21.996Z,62.50
2018-04-09T12:08:24.606Z,60.60
2018-04-09T12:10:27.225Z,60.00
2018-04-09T12:12:30.616Z,58.40
2018-04-09T12:14:33.987Z,59.80
2018-04-09T12:16:36.620Z,59.80
2018-04-09T12:18:39.984Z,57.40
2018-04-09T12:20:43.412Z,58.00
2018-04-09T12:22:45.995Z,57.90
2018-04-09T12:24:48.587Z,55.50
2018-04-09T12:26:51.199Z,53.70
2018-04-09T12:28:54.570Z,56.20
2018-04-09T12:30:57.185Z,56.10
2018-04-09T12:32:59.813Z,54.90
2018-04-09T12:35:02.464Z,53.70
2018-04-09T12:37:05.085Z,52.40
2018-04-09T12:39:08.447Z,50.40
2018-04-09T12:41:11.078Z,50.20
2018-04-09T12:43:13.688Z,50.30
2018-04-09T12:45:16.274Z,51.90
2018-04-09T12:47:18.930Z,52.90
2018-04-09T12:49:21.541Z,53.70
2018-04-09T12:51:24.147Z,52.10
2018-04-09T12:53:26.765Z,53.00
2018-04-09T12:55:29.355Z,53.40
2018-04-09T12:57:31.967Z,53.20
2018-04-09T12:59:34.547Z,52.80
2018-04-09T13:01:37.164Z,52.70
2018-04-09T13:03:39.764Z,51.00
2018-04-09T13:05:42.364Z,52.70
2018-04-09T13:07:45.068Z,51.80
2018-04-09T13:09:47.653Z,52.50
2018-04-09T13:11:50.270Z,52.80
2018-04-09T13:13:52.918Z,53.50
2018-04-09T13:15:55.609Z,52.10
2018-04-09T13:17:58.226Z,51.50
2018-04-09T13:20:00.819Z,51.40
2018-04-09T13:22:04.201Z,51.40
2018-04-09T13:24:06.783Z,51.40
2018-04-09T13:26:09.373Z,52.70
2018-04-09T13:28:12.074Z,50.80
2018-04-09T13:30:15.436Z,49.80
2018-04-09T13:32:18.060Z,49.80
2018-04-09T13:34:20.710Z,50.30
2018-04-09T13:36:23.314Z,51.70
2018-04-09T13:38:25.938Z,49.30
2018-04-09T13:40:28.537Z,48.40
2018-04-09T13:42:31.173Z,46.70
2018-04-09T13:44:33.859Z,46.30
2018-04-09T13:46:36.463Z,47.60
2018-04-09T13:48:39.067Z,46.80
2018-04-09T13:50:41.660Z,47.40
2018-04-09T13:52:44.301Z,47.00
2018-04-09T13:54:47.661Z,43.60
2018-04-09T13:56:51.067Z,44.60
2018-04-09T13:58:53.702Z,44.50
2018-04-09T14:00:56.296Z,43.70
2018-04-09T14:02:58.952Z,47.70
2018-04-09T14:05:01.554Z,45.10
2018-04-09T14:07:04.139Z,46.60
2018-04-09T14:09:06.741Z,44.80
2018-04-09T14:11:09.341Z,44.50
2018-04-09T14:13:11.987Z,43.80
2018-04-09T14:15:15.415Z,43.50
2018-04-09T14:17:18.056Z,43.50
2018-04-09T14:19:21.440Z,45.90
2018-04-09T14:21:24.800Z,45.70
2018-04-09T14:23:27.421Z,46.30
2018-04-09T14:25:30.011Z,47.30
2018-04-09T14:27:32.616Z,45.90
2018-04-09T14:29:37.434Z,45.60
2018-04-09T14:31:40.839Z,44.40
2018-04-09T14:33:45.007Z,46.20
2018-04-09T14:35:47.655Z,46.20
2018-04-09T14:37:51.044Z,45.60
2018-04-09T14:39:53.750Z,45.60
2018-04-09T14:41:56.371Z,44.70
2018-04-09T14:43:58.979Z,44.50
2018-04-09T14:46:02.384Z,46.90
2018-04-09T14:48:04.965Z,46.80
2018-04-09T14:50:07.593Z,43.00
2018-04-09T14:52:10.193Z,42.10
2018-04-09T14:54:13.565Z,42.40
2018-04-09T14:56:16.157Z,42.30
2018-04-09T14:58:19.512Z,41.90
2018-04-09T15:00:22.148Z,41.90
2018-04-09T15:02:24.797Z,42.20
2018-04-09T15:04:28.185Z,42.80
2018-04-09T15:06:30.773Z,42.80
2018-04-09T15:08:34.128Z,41.40
2018-04-09T15:10:36.736Z,41.40
2018-04-09T15:12:40.106Z,43.90
2018-04-09T15:14:42.706Z,43.90
2018-04-09T15:16:46.062Z,39.20
2018-04-09T15:18:48.668Z,39.20
2018-04-09T15:20:52.083Z,41.90
2018-04-09T15:22:54.715Z,41.80
2018-04-09T15:24:57.342Z,42.60
2018-04-09T15:26:59.949Z,45.30
2018-04-09T15:29:02.542Z,44.00
2018-04-09T15:31:05.173Z,40.20
2018-04-09T15:33:07.789Z,39.80
2018-04-09T15:35:10.408Z,38.70
2018-04-09T15:37:13.091Z,38.80
2018-04-09T15:39:15.691Z,38.20
2018-04-09T15:41:19.068Z,37.40
2018-04-09T15:43:21.667Z,37.40
2018-04-09T15:45:24.275Z,38.40
2018-04-09T15:47:27.631Z,40.40
2018-04-09T15:49:30.217Z,40.40
2018-04-09T15:51:32.835Z,41.30
2018-04-09T15:53:35.433Z,42.70
2018-04-09T15:55:38.041Z,43.20
2018-04-09T15:57:41.423Z,44.50
2018-04-09T15:59:44.019Z,43.80
2018-04-09T16:01:47.428Z,46.00
2018-04-09T16:03:50.802Z,46.40
2018-04-09T16:05:53.460Z,46.40
2018-04-09T16:07:56.084Z,45.70
2018-04-09T16:09:58.910Z,43.20
2018-04-09T16:12:01.527Z,43.10
2018-04-09T16:14:04.892Z,44.40
2018-04-09T16:16:07.531Z,44.40
2018-04-09T16:18:10.135Z,44.10
2018-04-09T16:20:12.727Z,44.90
2018-04-09T16:22:16.116Z,44.40
2018-04-09T16:24:18.708Z,44.40
2018-04-09T16:26:22.075Z,45.10
2018-04-09T16:28:24.707Z,45.00
2018-04-09T16:30:27.287Z,45.30
2018-04-09T16:32:29.927Z,46.00
2018-04-09T16:34:33.310Z,46.80
2018-04-09T16:36:36.695Z,46.50
2018-04-09T16:38:39.314Z,46.50
2018-04-09T16:40:41.932Z,45.50
2018-04-09T16:42:44.558Z,45.20
2018-04-09T16:44:47.166Z,44.90
2018-04-09T16:46:49.782Z,45.90
2018-04-09T16:48:53.139Z,45.60
2018-04-09T16:50:55.726Z,45.60
2018-04-09T16:52:58.347Z,45.60
2018-04-09T16:55:00.951Z,46.30
2018-04-09T16:57:03.672Z,45.30
2018-04-09T16:59:07.031Z,46.80
2018-04-09T17:01:09.620Z,46.70
2018-04-09T17:03:12.271Z,47.90
2018-04-09T17:05:14.922Z,48.70
2018-04-09T17:07:17.548Z,49.50
2018-04-09T17:09:20.987Z,48.20
2018-04-09T17:11:23.609Z,48.50
2018-04-09T17:13:26.215Z,49.40
2018-04-09T17:15:29.588Z,50.30
2018-04-09T17:17:32.967Z,52.50
2018-04-09T17:19:35.556Z,52.00
2018-04-09T17:21:38.152Z,50.90
2018-04-09T17:23:40.783Z,52.30
2018-04-09T17:25:43.392Z,54.40
2018-04-09T17:27:46.808Z,53.50
2018-04-09T17:29:49.435Z,53.50
2018-04-09T17:31:52.079Z,54.40
2018-04-09T17:33:54.700Z,55.50
2018-04-09T17:35:58.056Z,56.80
2018-04-09T17:38:00.708Z,56.80
2018-04-09T17:40:04.069Z,56.00
2018-04-09T17:42:07.444Z,57.10
2018-04-09T17:44:10.081Z,57.10
2018-04-09T17:46:12.684Z,59.00
2018-04-09T17:48:15.313Z,59.30
2018-04-09T17:50:17.919Z,59.90
2018-04-09T17:52:20.532Z,60.60
2018-04-09T17:54:23.924Z,60.90
2018-04-09T17:56:27.318Z,61.30
2018-04-09T17:58:30.732Z,63.30
2018-04-09T18:00:33.355Z,63.30
2018-04-09T18:02:36.044Z,65.70
2018-04-09T18:04:38.680Z,64.00
2018-04-09T18:06:41.290Z,65.20
2018-04-09T18:08:43.940Z,65.60
2018-04-09T18:10:46.584Z,67.30
2018-04-09T18:12:53.136Z,67.40
2018-04-09T18:14:56.540Z,66.30
2018-04-09T18:16:59.164Z,66.30
2018-04-09T18:19:01.787Z,65.10
2018-04-09T18:21:04.404Z,66.30
2018-04-09T18:23:07.042Z,68.10
2018-04-09T18:25:09.775Z,69.10
2018-04-09T18:27:12.392Z,68.30
2018-04-09T18:29:15.809Z,66.30
2018-04-09T18:31:18.464Z,66.40
2018-04-09T18:33:22.531Z,67.50
2018-04-09T18:35:25.224Z,69.80
2018-04-09T18:37:28.589Z,71.50
2018-04-09T18:39:31.240Z,71.50
2018-04-09T18:41:34.630Z,72.50
2018-04-09T18:43:38.150Z,72.40
2018-04-09T18:45:40.792Z,73.70
2018-04-09T18:47:43.400Z,73.50
2018-04-09T18:49:46.075Z,75.20
2018-04-09T18:51:48.692Z,74.70
2018-04-09T18:53:51.300Z,74.70
2018-04-09T18:57:57.089Z,74.90
2018-04-09T18:59:59.837Z,74.80
2018-04-09T19:02:02.505Z,75.80
2018-04-09T19:04:05.114Z,75.60
2018-04-09T19:06:07.746Z,75.30
2018-04-09T19:08:10.355Z,75.90
2018-04-09T19:10:13.001Z,76.00
2018-04-09T19:12:15.676Z,76.30
2018-04-09T19:14:18.352Z,77.30
2018-04-09T19:16:21.082Z,78.60
2018-04-09T19:18:24.459Z,78.20
2018-04-09T19:20:27.104Z,78.10
2018-04-09T19:22:29.735Z,78.50
2018-04-09T19:24:33.123Z,79.50
2018-04-09T19:26:35.775Z,79.50
2018-04-09T19:28:38.487Z,79.10
2018-04-09T19:30:41.904Z,79.20
2018-04-09T19:32:44.509Z,79.20
2018-04-09T19:34:52.765Z,79.60
2018-04-09T19:39:25.722Z,79.70
2018-04-09T19:41:28.399Z,80.00
2018-04-09T19:43:31.028Z,79.70
2018-04-09T19:45:33.692Z,81.10
2018-04-09T19:47:37.056Z,80.00
2018-04-09T19:49:39.694Z,80.10
2018-04-09T19:51:42.344Z,80.80
2018-04-09T19:53:44.982Z,81.20
2018-04-09T19:55:47.611Z,81.50
2018-04-09T19:57:50.232Z,81.70
2018-04-09T19:59:52.830Z,81.50
2018-04-09T20:01:56.228Z,81.10
2018-04-09T20:03:59.608Z,81.90
2018-04-09T20:06:02.314Z,81.80
2018-04-09T20:08:04.957Z,81.60
2018-04-09T20:10:07.555Z,81.90
2018-04-09T20:12:10.257Z,81.20
2018-04-09T20:14:12.892Z,82.20
2018-04-09T20:16:16.395Z,81.90
2018-04-09T20:18:19.013Z,81.90
2018-04-09T20:20:21.672Z,82.10
2018-04-09T20:22:24.292Z,82.10
2018-04-09T20:24:26.904Z,82.40
2018-04-09T20:26:29.557Z,82.80
2018-04-09T20:28:32.967Z,83.40
2018-04-09T20:30:36.357Z,83.50
2018-04-09T20:32:39.028Z,83.50
2018-04-09T20:34:42.416Z,83.30
2018-04-09T20:36:45.796Z,83.90
2018-04-09T20:38:49.243Z,83.70
2018-04-09T20:40:51.854Z,83.60
2018-04-09T20:42:54.557Z,83.10
2018-04-09T20:44:57.915Z,84.70
2018-04-09T20:47:00.530Z,84.70
2018-04-09T20:49:03.898Z,84.30
2018-04-09T20:51:06.491Z,84.40
2018-04-09T20:53:09.902Z,83.20
2018-04-09T20:55:12.521Z,83.10
2018-04-09T20:57:15.156Z,84.40
2018-04-09T20:59:17.787Z,84.50
2018-04-09T21:01:20.400Z,83.70
2018-04-09T21:03:23.061Z,84.10
2018-04-09T21:05:26.408Z,83.90
2018-04-09T21:07:29.048Z,83.90
2018-04-09T21:09:31.661Z,84.10
2018-04-09T21:11:34.261Z,84.20
2018-04-09T21:13:37.771Z,83.90
2018-04-09T21:15:41.194Z,84.10
2018-04-09T21:17:43.843Z,84.10
2018-04-09T21:19:46.463Z,84.20
2018-04-09T21:21:49.070Z,83.50
2018-04-09T21:23:51.781Z,83.30
2018-04-09T21:25:54.439Z,83.30
2018-04-09T21:27:57.880Z,82.60
2018-04-09T21:30:00.504Z,82.60
2018-04-09T21:32:03.900Z,82.90
2018-04-09T21:34:07.315Z,82.80
2018-04-09T21:36:09.932Z,82.80
2018-04-09T21:38:12.560Z,83.00
2018-04-09T21:40:15.180Z,83.30
2018-04-09T21:42:17.801Z,83.70
2018-04-09T21:44:20.447Z,83.40
2018-04-09T21:46:23.140Z,83.90
2018-04-09T21:48:26.529Z,83.10
2018-04-09T21:50:29.898Z,83.50
2018-04-09T21:52:32.612Z,83.40
2018-04-09T21:54:35.995Z,83.40
2018-04-09T21:56:39.464Z,83.90
2018-04-09T21:58:42.100Z,83.90
2018-04-09T22:00:44.708Z,85.00
2018-04-09T22:02:47.330Z,84.70
2018-04-09T22:06:56.978Z,84.80
2018-04-09T22:11:08.578Z,84.70
2018-04-09T22:13:11.276Z,84.10
2018-04-09T22:15:13.910Z,84.20
2018-04-09T22:17:17.264Z,84.60
2018-04-09T22:19:20.649Z,84.20
2018-04-09T22:21:23.271Z,84.20
2018-04-09T22:23:26.656Z,85.00
2018-04-09T22:25:29.408Z,84.90
2018-04-09T22:27:32.000Z,85.30
2018-04-09T22:29:34.609Z,85.40
2018-04-09T22:31:37.231Z,85.60
2018-04-09T22:33:39.915Z,85.70
2018-04-09T22:35:42.536Z,86.00
2018-04-09T22:37:45.132Z,85.80
2018-04-09T22:39:47.756Z,85.90
2018-04-09T22:41:51.118Z,85.50
2018-04-09T22:43:53.712Z,85.40
2018-04-09T22:45:56.331Z,85.40
2018-04-09T22:47:59.171Z,85.50
2018-04-09T22:50:01.807Z,85.60
2018-04-09T22:52:04.428Z,85.70
2018-04-09T22:54:07.063Z,86.40
2018-04-09T22:56:09.683Z,86.50
2018-04-09T22:58:13.115Z,86.90
2018-04-09T23:00:15.739Z,86.90
2018-04-09T23:02:19.122Z,87.70
2018-04-09T23:04:21.723Z,87.60
2018-04-09T23:06:25.389Z,88.00
2018-04-09T23:08:27.999Z,88.00
2018-04-09T23:10:31.396Z,88.20
2018-04-09T23:12:34.070Z,88.20
2018-04-09T23:14:37.449Z,88.30
2018-04-09T23:16:40.855Z,88.50
2018-04-09T23:18:44.231Z,88.00
2018-04-09T23:20:46.860Z,88.00
2018-04-09T23:22:49.472Z,88.50
2018-04-09T23:24:52.098Z,88.30
2018-04-09T23:26:54.720Z,87.70
2018-04-09T23:28:57.331Z,88.30
2018-04-09T23:30:59.960Z,88.20
2018-04-09T23:33:02.571Z,88.40
2018-04-09T23:35:05.935Z,89.10
2018-04-09T23:37:08.756Z,89.10
2018-04-09T23:39:11.351Z,89.50
2018-04-09T23:41:13.992Z,89.30
2018-04-09T23:43:17.411Z,89.20
2018-04-09T23:45:20.007Z,89.20
2018-04-09T23:47:22.642Z,89.50
2018-04-09T23:49:25.257Z,89.90
2018-04-09T23:51:28.643Z,89.80
2018-04-09T23:53:31.252Z,89.70
2018-04-09T23:55:33.871Z,89.80
2018-04-09T23:57:36.580Z,90.00
2018-04-09T23:59:39.200Z,90.00
